Moose Jaw Air Vice Marshal C. M. McEwen Airport
CYMJ : now visible

Airfield :











YOU CAN JOIN US ON...

 
LOGIN :

Register | Disclaimer

   EN    FR    IT 

 









Legend :    VFR   Marginal VFR   IFR   Intensive IFR   Very Intensive IFR
Visi :
Ceiling :
>= 8 km
>= 3000ft
5 to 8 km
1000 to 3000 ft
1500m to 5 km
500 to 1000 ft
800 to 1500m
200 to 500 ft
< 800m
< 200 ft
Symbols :   Thunderstorms  Fog  Heavy snow  Heavy precipitations  Wind > 20 kt






- Airport Elevation : 1892 ft
- IATA code : YMJ


CYMJ - Moose Jaw Air Vice Marshal C. M. McEwen

CURRENT METAR :
  • 282300Z 14015G20KT 15SM FEW075 BKN250 25/07 A3003 RMK CU2CI5 DENSITY ALT 3528FT SLP175

EXPIRED METARs :
  • 282200Z 16015G23KT 15SM FEW070 BKN250 25/07 A3005 RMK CU2CI4 DENSITY ALT 3518FT SLP182
  • 282100Z 19012KT 15SM FEW075 BKN240 24/06 A3007 RMK CU2CI4 DENSITY ALT 3403FT SLP190
  • 282000Z 14009KT 15SM FEW070 BKN240 23/07 A3009 RMK CU2CI4 DENSITY ALT 3253FT SLP198
  • 281900Z 14011G17KT 15SM FEW065 BKN250 22/06 A3011 RMK CU1CI6 DENSITY ALT 3155FT SLP202

TAF TAF CYMJ
Valid from the 28 at 18:00 until the 29 at 06:00 UTC


281740Z 2818/2906 14012KT P6SM FEW080 BKN250
FM282000 16012KT P6SM BKN080
FM290200 14012KT P6SM SCT080 RMK NXT FCST BY 290000Z
CZWG FIR / North America



MET'MAP, your aeronautical weather chart ! - Copyright ORBIFLY December 2007 - Disclaimer

ORBIFLY MET'MAP TEAM :

Programming & Development : Alexandra Zaïnal
Original concept : Baudouin d'Aumeries
Technical & hardware support : Manuel Goepfert
Assistance : Marc-Olivier Méhu




SOURCES & CREDITS :

   NOAA       Earth
Advisory